createdAt,value
2022-08-31T00:00:17.471Z,98967.72
2022-08-31T00:03:03.143Z,98971.66
2022-08-31T00:05:30.316Z,98971.53
2022-08-31T00:07:57.328Z,98991.16
2022-08-31T00:10:31.930Z,98978.81
2022-08-31T00:13:01.222Z,98979.41
2022-08-31T00:15:30.435Z,98983.09
2022-08-31T00:17:58.776Z,98979.97
2022-08-31T00:20:33.620Z,98976.06
2022-08-31T00:23:03.497Z,98983.38
2022-08-31T00:25:31.200Z,98981.72
2022-08-31T00:27:58.269Z,98974.59
2022-08-31T00:30:25.453Z,98978.59
2022-08-31T00:32:52.824Z,98974.34
2022-08-31T00:35:20.065Z,98980.94
2022-08-31T00:37:47.254Z,98976.78
2022-08-31T00:40:14.561Z,98974.72
2022-08-31T00:42:41.671Z,98978.16
2022-08-31T00:45:10.259Z,98980.03
2022-08-31T00:47:37.358Z,98976.44
2022-08-31T00:50:09.214Z,98972.38
2022-08-31T00:52:41.073Z,98963.03
2022-08-31T00:55:14.329Z,98972.03
2022-08-31T00:57:44.889Z,98962.34
2022-08-31T01:00:17.581Z,98964.88
2022-08-31T01:02:45.695Z,98967.53
2022-08-31T01:05:14.516Z,98964.88
2022-08-31T01:07:42.379Z,98964.31
2022-08-31T01:10:10.610Z,98962.59
2022-08-31T01:12:38.314Z,98964.31
2022-08-31T01:15:08.794Z,98969.28
2022-08-31T01:17:36.919Z,98957.03
2022-08-31T01:20:22.689Z,98965.56
2022-08-31T01:22:55.438Z,98972.59
2022-08-31T01:25:22.692Z,98959.53
2022-08-31T01:27:49.816Z,98960.00
2022-08-31T01:30:26.117Z,98970.25
2022-08-31T01:32:53.501Z,98967.13
2022-08-31T01:35:20.658Z,98971.19
2022-08-31T01:37:48.025Z,98968.63
2022-08-31T01:40:16.432Z,98965.25
2022-08-31T01:42:43.848Z,98958.66
2022-08-31T01:45:11.885Z,98959.22
2022-08-31T01:47:40.467Z,98957.81
2022-08-31T01:50:08.661Z,98955.31
2022-08-31T01:52:37.807Z,98961.19
2022-08-31T01:55:07.815Z,98955.94
2022-08-31T01:57:35.104Z,98946.94
2022-08-31T02:00:25.928Z,98946.16
2022-08-31T02:02:52.960Z,98948.66
2022-08-31T02:05:19.998Z,98947.63
2022-08-31T02:07:47.305Z,98950.28
2022-08-31T02:10:14.425Z,98947.00
2022-08-31T02:12:41.524Z,98956.13
2022-08-31T02:15:10.257Z,98953.31
2022-08-31T02:17:37.489Z,98949.88
2022-08-31T02:20:08.718Z,98947.31
2022-08-31T02:22:36.127Z,98944.50
2022-08-31T02:25:03.706Z,98944.06
2022-08-31T02:27:30.997Z,98940.75
2022-08-31T02:29:58.058Z,98943.19
2022-08-31T02:32:25.274Z,98938.19
2022-08-31T02:34:52.421Z,98935.66
2022-08-31T02:37:20.214Z,98941.84
2022-08-31T02:39:48.799Z,98942.03
2022-08-31T02:42:18.575Z,98934.66
2022-08-31T02:44:46.511Z,98937.88
2022-08-31T02:47:13.531Z,98939.31
2022-08-31T02:49:45.636Z,98925.69
2022-08-31T02:52:13.422Z,98932.16
2022-08-31T02:54:41.128Z,98929.38
2022-08-31T02:57:08.375Z,98939.81
2022-08-31T02:59:35.377Z,98928.44
2022-08-31T03:02:02.549Z,98932.81
2022-08-31T03:04:30.676Z,98929.50
2022-08-31T03:06:57.733Z,98929.44
2022-08-31T03:09:24.879Z,98931.44
2022-08-31T03:11:52.029Z,98924.19
2022-08-31T03:14:19.035Z,98923.72
2022-08-31T03:16:46.244Z,98924.38
2022-08-31T03:19:20.756Z,98921.28
2022-08-31T03:21:47.964Z,98922.16
2022-08-31T03:24:23.005Z,98924.59
2022-08-31T03:26:55.203Z,98929.66
2022-08-31T03:29:22.494Z,98928.19
2022-08-31T03:32:08.464Z,98930.38
2022-08-31T03:34:37.353Z,98934.66
2022-08-31T03:37:04.474Z,98929.72
2022-08-31T03:39:31.837Z,98930.81
2022-08-31T03:41:58.948Z,98923.25
2022-08-31T03:44:25.916Z,98924.06
2022-08-31T03:46:56.671Z,98917.56
2022-08-31T03:49:25.214Z,98917.34
2022-08-31T03:52:15.682Z,98917.97
2022-08-31T03:54:46.653Z,98911.47
2022-08-31T03:57:14.113Z,98901.22
2022-08-31T03:59:41.131Z,98917.72
2022-08-31T04:02:20.983Z,98916.78
2022-08-31T04:05:18.044Z,98911.47
2022-08-31T04:08:03.952Z,98914.63
2022-08-31T04:11:11.669Z,98912.13
2022-08-31T04:13:59.151Z,98911.94
2022-08-31T04:16:36.673Z,98913.13
2022-08-31T04:19:41.433Z,98908.56
2022-08-31T04:22:17.828Z,98906.97
2022-08-31T04:25:05.292Z,98900.16
2022-08-31T04:27:33.869Z,98902.38
2022-08-31T04:30:02.183Z,98900.69
2022-08-31T04:32:31.821Z,98906.94
2022-08-31T04:34:58.839Z,98919.53
2022-08-31T04:37:25.957Z,98911.84
2022-08-31T04:39:53.350Z,98910.00
2022-08-31T04:42:20.618Z,98925.81
2022-08-31T04:44:47.621Z,98923.06
2022-08-31T04:47:14.655Z,98920.44
2022-08-31T04:49:44.121Z,98918.72
2022-08-31T04:52:11.161Z,98916.00
2022-08-31T04:54:38.255Z,98913.34
2022-08-31T04:57:05.555Z,98915.72
2022-08-31T04:59:33.329Z,98913.50
2022-08-31T05:02:15.819Z,98924.47
2022-08-31T05:04:52.373Z,98918.78
2022-08-31T05:07:19.822Z,98921.13
2022-08-31T05:09:47.073Z,98920.19
2022-08-31T05:12:14.121Z,98912.22
2022-08-31T05:14:42.162Z,98914.72
2022-08-31T05:17:19.611Z,98918.88
2022-08-31T05:19:46.778Z,98919.94
2022-08-31T05:22:15.644Z,98913.22
2022-08-31T05:24:44.458Z,98922.25
2022-08-31T05:27:12.990Z,98917.41
2022-08-31T05:29:41.015Z,98918.00
2022-08-31T05:32:30.884Z,98933.84
2022-08-31T05:35:00.466Z,98931.41
2022-08-31T05:37:27.568Z,98923.50
2022-08-31T05:39:55.187Z,98938.38
2022-08-31T05:42:22.318Z,98941.38
2022-08-31T05:44:49.485Z,98944.06
2022-08-31T05:47:17.057Z,98948.00
2022-08-31T05:49:44.616Z,98945.31
2022-08-31T05:52:15.660Z,98941.16
2022-08-31T05:54:43.815Z,98946.94
2022-08-31T05:57:10.812Z,98955.53
2022-08-31T05:59:39.895Z,98951.38
2022-08-31T06:02:10.705Z,98953.91
2022-08-31T06:04:38.690Z,98958.41
2022-08-31T06:07:05.743Z,98958.31
2022-08-31T06:09:48.300Z,98956.47
2022-08-31T06:12:20.646Z,98956.34
2022-08-31T06:14:51.273Z,98954.03
2022-08-31T06:17:20.522Z,98958.25
2022-08-31T06:19:47.853Z,98952.63
2022-08-31T06:22:14.944Z,98939.66
2022-08-31T06:24:43.191Z,98941.41
2022-08-31T06:27:10.393Z,98949.03
2022-08-31T06:29:37.931Z,98945.72
2022-08-31T06:32:08.904Z,98943.28
2022-08-31T06:34:40.733Z,98943.16
2022-08-31T06:37:10.935Z,98942.28
2022-08-31T06:39:46.710Z,98942.56
2022-08-31T06:42:32.373Z,98938.44
2022-08-31T06:45:03.028Z,98942.16
2022-08-31T06:47:40.802Z,98939.44
2022-08-31T06:50:09.166Z,98938.69
2022-08-31T06:52:38.918Z,98934.28
2022-08-31T06:55:32.152Z,98939.38
2022-08-31T06:58:17.813Z,98948.09
2022-08-31T07:00:58.734Z,98941.25
2022-08-31T07:03:45.921Z,98945.16
2022-08-31T07:06:17.569Z,98943.31
2022-08-31T07:08:49.332Z,98942.13
2022-08-31T07:11:21.021Z,98944.22
2022-08-31T07:13:49.121Z,98938.00
2022-08-31T07:16:18.857Z,98939.59
2022-08-31T07:18:47.324Z,98934.22
2022-08-31T07:21:19.920Z,98931.53
2022-08-31T07:23:49.422Z,98947.47
2022-08-31T07:26:25.775Z,98945.63
2022-08-31T07:28:53.724Z,98954.00
2022-08-31T07:31:23.648Z,98944.03
2022-08-31T07:33:52.566Z,98950.78
2022-08-31T07:36:19.945Z,98943.69
2022-08-31T07:39:35.120Z,98953.97
2022-08-31T07:42:11.529Z,98959.19
2022-08-31T07:44:41.585Z,98951.59
2022-08-31T07:47:12.534Z,98964.03
2022-08-31T07:49:47.918Z,98960.00
2022-08-31T07:52:34.162Z,98969.88
2022-08-31T07:55:09.542Z,98972.16
2022-08-31T07:57:53.563Z,98966.81
2022-08-31T08:00:27.771Z,98963.56
2022-08-31T08:02:55.334Z,98977.13
2022-08-31T08:05:29.369Z,98957.94
2022-08-31T08:08:28.971Z,98967.16
2022-08-31T08:11:18.765Z,98957.81
2022-08-31T08:13:54.883Z,98957.88
2022-08-31T08:16:36.398Z,98960.66
2022-08-31T08:19:18.125Z,98954.88
2022-08-31T08:21:46.945Z,98959.81
2022-08-31T08:24:16.642Z,98962.09
2022-08-31T08:27:02.508Z,98959.47
2022-08-31T08:29:56.414Z,98956.25
2022-08-31T08:32:27.827Z,98961.19
2022-08-31T08:34:55.473Z,98963.97
2022-08-31T08:37:41.104Z,98970.09
2022-08-31T08:40:26.473Z,98964.38
2022-08-31T08:42:54.442Z,98970.97
2022-08-31T08:45:22.476Z,98958.19
2022-08-31T08:47:51.093Z,98964.75
2022-08-31T08:50:19.218Z,98960.06
2022-08-31T08:52:47.757Z,98980.03
2022-08-31T08:55:19.369Z,98970.38
2022-08-31T08:57:49.844Z,98968.50
2022-08-31T09:00:26.131Z,98967.97
2022-08-31T09:03:04.036Z,98970.91
2022-08-31T09:05:59.064Z,98969.84
2022-08-31T09:08:41.572Z,98967.16
2022-08-31T09:11:28.919Z,98971.59
2022-08-31T09:13:56.197Z,98978.00
2022-08-31T09:16:48.594Z,98970.81
2022-08-31T09:19:18.715Z,98980.72
2022-08-31T09:21:50.252Z,98969.16
2022-08-31T09:24:22.067Z,98981.34
2022-08-31T09:27:18.481Z,98980.44
2022-08-31T09:29:53.509Z,98986.13
2022-08-31T09:32:32.276Z,98989.28
2022-08-31T09:35:06.212Z,98998.53
2022-08-31T09:37:47.922Z,98992.41
2022-08-31T09:40:32.173Z,98992.59
2022-08-31T09:43:04.774Z,98988.41
2022-08-31T09:45:41.277Z,98994.47
2022-08-31T09:48:09.518Z,98989.75
2022-08-31T09:50:47.051Z,98998.78
2022-08-31T09:53:35.184Z,99000.47
2022-08-31T09:56:14.323Z,98996.28
2022-08-31T09:58:51.411Z,99007.19
2022-08-31T10:01:24.441Z,99006.47
2022-08-31T10:04:26.197Z,99006.28
2022-08-31T10:06:56.259Z,99000.53
2022-08-31T10:09:30.373Z,99002.50
2022-08-31T10:12:04.346Z,99006.88
2022-08-31T10:15:08.549Z,99004.28
2022-08-31T10:17:45.345Z,99012.84
2022-08-31T10:20:21.285Z,99015.63
2022-08-31T10:22:58.356Z,99006.59
2022-08-31T10:25:31.356Z,99013.53
2022-08-31T10:28:08.533Z,99021.97
2022-08-31T10:31:02.407Z,99016.06
2022-08-31T10:33:59.154Z,99021.44
2022-08-31T10:36:33.816Z,99038.75
2022-08-31T10:39:01.292Z,99042.94
2022-08-31T10:41:38.653Z,99032.81
2022-08-31T10:44:24.223Z,99040.31
2022-08-31T10:46:54.589Z,99047.38
2022-08-31T10:49:22.309Z,99045.47
2022-08-31T10:52:03.303Z,99051.81
2022-08-31T10:54:49.120Z,99055.69
2022-08-31T10:57:51.275Z,99048.94
2022-08-31T11:00:47.629Z,99054.03
2022-08-31T11:03:51.868Z,99056.22
2022-08-31T11:06:18.853Z,99066.50
2022-08-31T11:08:54.237Z,99055.44
2022-08-31T11:11:31.878Z,99055.31
2022-08-31T11:14:17.795Z,99060.78
2022-08-31T11:17:13.341Z,99060.84
2022-08-31T11:20:02.572Z,99052.34
2022-08-31T11:22:37.691Z,99052.38
2022-08-31T11:25:34.135Z,99052.03
2022-08-31T11:28:10.201Z,99041.91
2022-08-31T11:30:42.248Z,99043.22
2022-08-31T11:33:19.825Z,99041.81
2022-08-31T11:35:50.124Z,99042.44
2022-08-31T11:39:03.656Z,99040.00
2022-08-31T11:41:46.649Z,99036.41
2022-08-31T11:44:33.187Z,99039.44
2022-08-31T11:47:08.716Z,99044.09
2022-08-31T11:49:46.070Z,99046.75
2022-08-31T11:52:29.848Z,99045.22
2022-08-31T11:55:01.736Z,99051.75
2022-08-31T11:57:37.734Z,99050.34
2022-08-31T12:00:19.566Z,99051.97
2022-08-31T12:03:04.579Z,99063.91
2022-08-31T12:05:51.077Z,99057.69
2022-08-31T12:08:18.242Z,99060.94
2022-08-31T12:11:05.528Z,99057.31
2022-08-31T12:13:40.124Z,99061.97
2022-08-31T12:16:28.305Z,99064.19
2022-08-31T12:19:09.059Z,99073.06
2022-08-31T12:21:57.627Z,99074.00
2022-08-31T12:24:30.389Z,99088.19
2022-08-31T12:27:22.118Z,99096.31
2022-08-31T12:29:50.221Z,99092.59
2022-08-31T12:32:23.290Z,99098.03
2022-08-31T12:34:55.919Z,99090.06
2022-08-31T12:37:34.987Z,99087.72
2022-08-31T12:40:22.701Z,99102.09
2022-08-31T12:42:58.009Z,99087.53
2022-08-31T12:45:40.102Z,99096.84
2022-08-31T12:48:20.332Z,99093.75
2022-08-31T12:51:05.592Z,99097.38
2022-08-31T12:53:53.966Z,99081.88
2022-08-31T12:56:51.860Z,99092.56
2022-08-31T12:59:45.743Z,99096.53
2022-08-31T13:02:15.994Z,99101.53
2022-08-31T13:04:45.464Z,99097.81
2022-08-31T13:07:29.086Z,99103.06
2022-08-31T13:10:06.818Z,99106.41
2022-08-31T13:12:34.147Z,99102.94
2022-08-31T13:15:01.225Z,99103.31
2022-08-31T13:17:36.783Z,99118.78
2022-08-31T13:20:07.674Z,99101.25
2022-08-31T13:22:41.859Z,99102.41
2022-08-31T13:25:33.293Z,99104.22
2022-08-31T13:28:01.203Z,99104.03
2022-08-31T13:30:28.249Z,99114.69
2022-08-31T13:32:55.716Z,99116.44
2022-08-31T13:35:31.934Z,99111.88
2022-08-31T13:38:08.109Z,99109.22
2022-08-31T13:40:39.683Z,99115.47
2022-08-31T13:43:10.413Z,99123.38
2022-08-31T13:45:50.583Z,99123.66
2022-08-31T13:48:32.209Z,99118.44
2022-08-31T13:51:14.913Z,99115.66
2022-08-31T13:54:03.845Z,99116.59
2022-08-31T13:56:49.000Z,99126.41
2022-08-31T13:59:24.648Z,99130.56
2022-08-31T14:02:05.928Z,99134.53
2022-08-31T14:04:48.507Z,99135.00
2022-08-31T14:07:21.831Z,99141.22
2022-08-31T14:09:50.941Z,99137.03
2022-08-31T14:12:46.665Z,99158.66
2022-08-31T14:15:19.538Z,99153.06
2022-08-31T14:21:20.982Z,99157.63
2022-08-31T14:24:03.270Z,99161.00
2022-08-31T14:26:42.611Z,99159.44
2022-08-31T14:29:13.324Z,99159.69
2022-08-31T14:31:52.483Z,99164.47
2022-08-31T14:34:32.271Z,99164.13
2022-08-31T14:37:02.557Z,99156.72
2022-08-31T14:39:48.129Z,99159.19
2022-08-31T14:42:29.130Z,99168.34
2022-08-31T14:45:00.744Z,99163.72
2022-08-31T14:47:30.561Z,99174.16
2022-08-31T14:50:08.511Z,99184.06
2022-08-31T14:52:38.568Z,99187.59
2022-08-31T14:55:09.303Z,99190.38
2022-08-31T14:57:38.243Z,99195.69
2022-08-31T15:00:07.512Z,99192.22
2022-08-31T15:02:35.479Z,99200.81
2022-08-31T15:05:06.521Z,99205.13
2022-08-31T15:07:36.452Z,99213.06
2022-08-31T15:10:06.866Z,99208.34
2022-08-31T15:12:35.532Z,99200.25
2022-08-31T15:15:02.545Z,99201.16
2022-08-31T15:17:34.325Z,99205.66
2022-08-31T15:20:03.540Z,99208.09
2022-08-31T15:22:33.275Z,99209.88
2022-08-31T15:25:00.390Z,99205.69
2022-08-31T15:27:29.155Z,99201.72
2022-08-31T15:30:01.392Z,99204.59
2022-08-31T15:32:31.724Z,99207.94
2022-08-31T15:34:58.748Z,99207.78
2022-08-31T15:37:32.148Z,99208.16
2022-08-31T15:40:02.267Z,99206.56
2022-08-31T15:42:37.556Z,99209.44
2022-08-31T15:45:05.665Z,99209.47
2022-08-31T15:47:54.815Z,99210.16
2022-08-31T15:50:31.954Z,99223.31
2022-08-31T15:53:08.985Z,99219.66
2022-08-31T15:55:40.704Z,99220.44
2022-08-31T15:58:09.551Z,99217.69
2022-08-31T16:00:37.659Z,99230.50
2022-08-31T16:03:06.427Z,99234.16
2022-08-31T16:05:35.914Z,99245.38
2022-08-31T16:08:03.397Z,99236.03
2022-08-31T16:10:31.178Z,99244.03
2022-08-31T16:12:58.209Z,99241.97
2022-08-31T16:15:26.232Z,99245.25
2022-08-31T16:17:57.709Z,99242.81
2022-08-31T16:20:27.520Z,99245.25
2022-08-31T16:22:55.329Z,99247.69
2022-08-31T16:25:22.366Z,99246.72
2022-08-31T16:27:49.999Z,99249.00
2022-08-31T16:30:17.057Z,99248.59
2022-08-31T16:32:46.432Z,99250.81
2022-08-31T16:35:15.190Z,99252.88
2022-08-31T16:37:42.205Z,99251.03
2022-08-31T16:40:09.995Z,99256.78
2022-08-31T16:42:37.300Z,99265.53
2022-08-31T16:45:04.790Z,99259.63
2022-08-31T16:47:31.878Z,99268.19
2022-08-31T16:50:02.534Z,99265.75
2022-08-31T16:52:30.916Z,99268.19
2022-08-31T16:54:58.035Z,99266.97
2022-08-31T16:57:28.400Z,99274.28
2022-08-31T16:59:59.449Z,99266.97
2022-08-31T17:02:27.753Z,99275.91
2022-08-31T17:05:00.658Z,99276.56
2022-08-31T17:07:29.126Z,99277.78
2022-08-31T17:10:07.191Z,99272.28
2022-08-31T17:12:34.906Z,99266.59
2022-08-31T17:15:03.815Z,99274.69
2022-08-31T17:17:32.990Z,99271.03
2022-08-31T17:20:00.867Z,99274.91
2022-08-31T17:22:33.264Z,99273.50
2022-08-31T17:25:03.754Z,99275.50
2022-08-31T17:27:33.470Z,99276.75
2022-08-31T17:30:05.139Z,99274.09
2022-08-31T17:32:32.953Z,99271.25
2022-08-31T17:34:59.931Z,99278.75
2022-08-31T17:37:36.586Z,99289.94
2022-08-31T17:40:09.086Z,99277.31
2022-08-31T17:42:37.468Z,99281.59
2022-08-31T17:45:05.893Z,99288.53
2022-08-31T17:47:33.380Z,99283.22
2022-08-31T17:50:00.637Z,99282.19
2022-08-31T17:52:28.197Z,99279.59
2022-08-31T17:54:55.398Z,99275.09
2022-08-31T17:57:25.335Z,99276.91
2022-08-31T17:59:53.415Z,99277.91
2022-08-31T18:02:32.366Z,99285.66
2022-08-31T18:05:00.848Z,99285.25
2022-08-31T18:07:28.733Z,99288.91
2022-08-31T18:09:56.173Z,99279.53
2022-08-31T18:12:25.678Z,99277.91
2022-08-31T18:14:54.030Z,99277.53
2022-08-31T18:17:25.679Z,99280.34
2022-08-31T18:19:52.913Z,99267.97
2022-08-31T18:22:19.992Z,99279.53
2022-08-31T18:24:47.011Z,99274.25
2022-08-31T18:27:17.880Z,99282.94
2022-08-31T18:29:45.466Z,99267.28
2022-08-31T18:32:12.691Z,99270.94
2022-08-31T18:34:44.910Z,99269.09
2022-08-31T18:37:13.138Z,99269.69
2022-08-31T18:40:08.559Z,99275.19
2022-08-31T18:42:56.848Z,99270.94
2022-08-31T18:45:25.229Z,99268.69
2022-08-31T18:48:23.342Z,99269.66
2022-08-31T18:50:46.758Z,99268.81
2022-08-31T18:53:27.426Z,99273.06
2022-08-31T18:55:59.478Z,99273.88
2022-08-31T18:58:26.538Z,99258.03
2022-08-31T19:00:57.321Z,99268.38
2022-08-31T19:03:25.871Z,99267.03
2022-08-31T19:05:52.951Z,99268.63
2022-08-31T19:08:20.059Z,99260.72
2022-08-31T19:10:49.135Z,99254.25
2022-08-31T19:13:16.363Z,99268.22
2022-08-31T19:15:44.374Z,99265.75
2022-08-31T19:18:11.572Z,99252.75
2022-08-31T19:20:39.945Z,99279.31
2022-08-31T19:23:08.125Z,99270.28
2022-08-31T19:25:42.351Z,99271.44
2022-08-31T19:28:10.066Z,99272.06
2022-08-31T19:30:38.118Z,99275.66
2022-08-31T19:33:11.506Z,99269.16
2022-08-31T19:35:38.541Z,99262.81
2022-08-31T19:38:05.948Z,99268.47
2022-08-31T19:40:40.064Z,99259.34
2022-08-31T19:45:54.500Z,99244.28
2022-08-31T19:48:23.517Z,99257.19
2022-08-31T19:50:52.307Z,99251.03
2022-08-31T19:53:21.595Z,99257.22
2022-08-31T19:55:51.078Z,99250.38
2022-08-31T19:58:22.155Z,99258.84
2022-08-31T20:00:50.035Z,99264.41
2022-08-31T20:03:19.379Z,99261.97
2022-08-31T20:05:47.655Z,99253.06
2022-08-31T20:08:14.597Z,99254.25
2022-08-31T20:10:44.115Z,99252.56
2022-08-31T20:13:12.680Z,99255.44
2022-08-31T20:15:45.120Z,99265.09
2022-08-31T20:18:12.896Z,99267.09
2022-08-31T20:20:45.955Z,99266.41
2022-08-31T20:23:16.717Z,99260.94
2022-08-31T20:25:49.760Z,99266.94
2022-08-31T20:28:25.547Z,99260.72
2022-08-31T20:30:59.183Z,99258.81
2022-08-31T20:33:27.576Z,99259.06
2022-08-31T20:35:54.677Z,99257.91
2022-08-31T20:38:21.664Z,99254.63
2022-08-31T20:40:52.753Z,99265.53
2022-08-31T20:43:21.239Z,99263.88
2022-08-31T20:45:48.830Z,99260.28
2022-08-31T20:48:34.401Z,99252.50
2022-08-31T20:51:16.324Z,99248.13
2022-08-31T20:53:44.687Z,99245.50
2022-08-31T20:56:16.375Z,99244.06
2022-08-31T20:58:46.123Z,99236.09
2022-08-31T21:01:14.255Z,99242.50
2022-08-31T21:03:41.965Z,99236.88
2022-08-31T21:06:11.773Z,99239.97
2022-08-31T21:08:41.011Z,99240.50
2022-08-31T21:11:16.792Z,99241.72
2022-08-31T21:13:44.661Z,99234.00
2022-08-31T21:16:11.936Z,99218.31
2022-08-31T21:18:40.537Z,99222.84
2022-08-31T21:21:10.811Z,99221.84
2022-08-31T21:23:38.609Z,99209.25
2022-08-31T21:26:09.520Z,99202.38
2022-08-31T21:28:40.051Z,99200.72
2022-08-31T21:31:16.456Z,99206.97
2022-08-31T21:33:57.443Z,99207.88
2022-08-31T21:36:26.739Z,99204.09
2022-08-31T21:38:55.898Z,99212.34
2022-08-31T21:41:26.815Z,99212.16
2022-08-31T21:43:55.041Z,99217.22
2022-08-31T21:46:25.370Z,99225.56
2022-08-31T21:48:55.301Z,99217.41
2022-08-31T21:51:24.076Z,99223.28
2022-08-31T21:53:57.213Z,99209.88
2022-08-31T21:56:26.703Z,99209.00
2022-08-31T21:58:54.497Z,99218.94
2022-08-31T22:01:24.069Z,99210.16
2022-08-31T22:03:54.575Z,99214.63
2022-08-31T22:06:31.199Z,99209.97
2022-08-31T22:09:08.545Z,99197.81
2022-08-31T22:11:41.883Z,99198.91
2022-08-31T22:14:11.094Z,99207.88
2022-08-31T22:16:39.563Z,99212.66
2022-08-31T22:19:13.583Z,99208.88
2022-08-31T22:21:51.281Z,99206.88
2022-08-31T22:24:26.989Z,99201.44
2022-08-31T22:26:57.093Z,99207.31
2022-08-31T22:29:26.525Z,99204.69
2022-08-31T22:31:56.528Z,99210.03
2022-08-31T22:34:24.174Z,99213.28
2022-08-31T22:36:52.428Z,99208.75
2022-08-31T22:39:28.281Z,99201.88
2022-08-31T22:41:56.842Z,99205.31
2022-08-31T22:44:27.168Z,99206.66
2022-08-31T22:46:56.591Z,99215.81
2022-08-31T22:49:24.546Z,99208.28
2022-08-31T22:51:51.732Z,99206.34
2022-08-31T22:54:19.888Z,99203.06
2022-08-31T22:56:47.747Z,99209.41
2022-08-31T22:59:21.117Z,99212.84
2022-08-31T23:01:52.386Z,99208.47
2022-08-31T23:04:20.624Z,99207.00
2022-08-31T23:06:49.854Z,99211.91
2022-08-31T23:09:21.198Z,99213.13
2022-08-31T23:11:51.681Z,99209.53
2022-08-31T23:14:22.667Z,99212.50
2022-08-31T23:16:55.239Z,99215.47
2022-08-31T23:19:26.406Z,99215.47
2022-08-31T23:21:56.749Z,99215.19
2022-08-31T23:24:37.461Z,99211.59
2022-08-31T23:27:07.469Z,99222.72
2022-08-31T23:29:40.903Z,99227.25
2022-08-31T23:32:12.178Z,99228.19
2022-08-31T23:34:41.347Z,99228.50
2022-08-31T23:37:09.901Z,99236.38
2022-08-31T23:39:43.689Z,99231.63
2022-08-31T23:42:13.935Z,99239.84
2022-08-31T23:44:43.701Z,99240.66
2022-08-31T23:47:13.844Z,99234.72
2022-08-31T23:49:42.698Z,99242.06
2022-08-31T23:52:12.138Z,99239.03
2022-08-31T23:54:40.075Z,99230.28
2022-08-31T23:57:08.586Z,99237.78
